Time;durP1;ratioP1;P1;durP2;ratioP2;P2;SDS_P1;SDS_P2;PMS_P1;PMS_P2;Temp;Humidity;BMP_temperature;BMP_pressure;BME280_temperature;BME280_humidity;BME280_pressure;Samples;Min_cycle;Max_cycle;Signal;HPM_P1;HPM_P2
2023/12/18 00:02:22;;;;;;;14.43;8.30;;;1.30;99.90;;;;;;5006760;28;20498;-80
2023/12/18 00:04:49;;;;;;;12.43;7.45;;;1.40;99.90;;;;;;5010726;28;20102;-80
2023/12/18 00:07:16;;;;;;;14.13;8.02;;;1.30;99.90;;;;;;5005952;28;20061;-79
2023/12/18 00:09:43;;;;;;;11.07;7.00;;;1.30;99.90;;;;;;5010135;28;20104;-80
2023/12/18 00:12:10;;;;;;;11.48;6.18;;;1.40;99.90;;;;;;5021622;28;20073;-79
2023/12/18 00:14:37;;;;;;;11.35;6.60;;;1.40;99.90;;;;;;5009348;28;20085;-79
2023/12/18 00:17:04;;;;;;;9.32;6.03;;;1.40;99.90;;;;;;5009425;28;20233;-80
2023/12/18 00:19:31;;;;;;;10.10;6.20;;;1.40;99.90;;;;;;5008278;28;20052;-78
2023/12/18 00:21:58;;;;;;;10.25;5.50;;;1.40;99.90;;;;;;5012374;28;20045;-78
2023/12/18 00:24:25;;;;;;;9.63;5.70;;;1.40;99.90;;;;;;5005135;28;20046;-79
2023/12/18 00:26:52;;;;;;;7.80;5.43;;;1.40;99.90;;;;;;5006091;28;20518;-78
2023/12/18 00:29:19;;;;;;;9.52;5.30;;;1.30;99.90;;;;;;5007966;28;20046;-78
2023/12/18 00:31:47;;;;;;;9.32;5.95;;;1.30;99.90;;;;;;5008188;28;20054;-78
2023/12/18 00:34:14;;;;;;;8.18;5.50;;;1.30;99.90;;;;;;5021340;28;20081;-78
2023/12/18 00:36:43;;;;;;;7.75;5.82;;;1.20;99.90;;;;;;5007523;28;20065;-81
2023/12/18 00:39:11;;;;;;;11.70;7.20;;;1.20;99.90;;;;;;5006421;28;20046;-80
2023/12/18 00:41:37;;;;;;;11.82;5.78;;;1.20;99.90;;;;;;5007370;28;20061;-80
2023/12/18 00:44:04;;;;;;;12.05;5.55;;;1.30;99.90;;;;;;5005230;28;20581;-79
2023/12/18 00:46:31;;;;;;;10.23;5.45;;;1.30;99.90;;;;;;5006124;28;20046;-80
2023/12/18 00:48:58;;;;;;;11.13;6.50;;;1.30;99.90;;;;;;5003185;28;20066;-79
2023/12/18 00:51:24;;;;;;;9.70;5.38;;;1.20;99.90;;;;;;5009691;28;20053;-79
2023/12/18 00:53:51;;;;;;;8.98;5.60;;;1.30;99.90;;;;;;5008793;28;20049;-79
2023/12/18 00:56:19;;;;;;;13.43;7.47;;;1.30;99.90;;;;;;5009009;28;20046;-80
2023/12/18 00:58:46;;;;;;;8.35;5.28;;;1.30;99.90;;;;;;5012397;28;20421;-78
2023/12/18 01:01:12;;;;;;;8.40;5.00;;;1.30;99.90;;;;;;5018020;28;20424;-79
2023/12/18 01:03:40;;;;;;;9.02;5.40;;;1.30;99.90;;;;;;5014622;28;20049;-79
2023/12/18 01:06:06;;;;;;;7.25;4.55;;;1.20;99.90;;;;;;5007794;28;20088;-79
2023/12/18 01:08:33;;;;;;;6.60;3.85;;;1.20;99.90;;;;;;5008736;28;20140;-78
2023/12/18 01:11:00;;;;;;;5.85;4.20;;;1.30;99.90;;;;;;5008227;28;20085;-79
2023/12/18 01:13:27;;;;;;;9.13;4.72;;;1.20;99.90;;;;;;5008692;28;20045;-79
2023/12/18 01:15:56;;;;;;;7.68;4.68;;;1.20;99.90;;;;;;5004337;28;20046;-79
2023/12/18 01:18:22;;;;;;;9.40;5.45;;;1.20;99.90;;;;;;5008928;28;20406;-79
2023/12/18 01:20:49;;;;;;;12.55;7.45;;;1.20;99.90;;;;;;5003908;28;20129;-78
2023/12/18 01:23:16;;;;;;;9.05;6.00;;;1.20;99.90;;;;;;5007344;28;20097;-80
2023/12/18 01:25:43;;;;;;;11.38;5.82;;;1.20;99.90;;;;;;5006670;28;20119;-79
2023/12/18 01:28:09;;;;;;;8.32;5.22;;;1.20;99.90;;;;;;5008730;28;20054;-79
2023/12/18 01:30:36;;;;;;;8.07;4.82;;;1.20;99.90;;;;;;5006344;28;20081;-79
2023/12/18 01:33:03;;;;;;;8.93;5.25;;;1.20;99.90;;;;;;5009190;28;20373;-79
2023/12/18 01:35:30;;;;;;;8.65;4.90;;;1.10;99.90;;;;;;5005694;28;20068;-79
2023/12/18 01:37:57;;;;;;;8.32;4.72;;;1.10;99.90;;;;;;5007669;28;20042;-78
2023/12/18 01:40:24;;;;;;;10.50;5.18;;;1.10;99.90;;;;;;5008435;28;20041;-79
2023/12/18 01:42:50;;;;;;;7.85;4.57;;;1.10;99.90;;;;;;5005435;28;20050;-79
2023/12/18 01:45:17;;;;;;;6.18;4.22;;;1.10;99.90;;;;;;5021016;28;20553;-79
2023/12/18 01:47:44;;;;;;;7.40;4.65;;;1.10;99.90;;;;;;5008021;28;20532;-79
2023/12/18 01:50:11;;;;;;;9.43;5.45;;;1.10;99.90;;;;;;5010596;28;20074;-78
2023/12/18 01:52:39;;;;;;;6.95;4.60;;;1.10;99.90;;;;;;5005443;28;20053;-80
2023/12/18 01:55:08;;;;;;;6.28;4.32;;;1.10;99.90;;;;;;5008815;28;20178;-79
2023/12/18 01:57:36;;;;;;;8.27;4.85;;;1.10;99.90;;;;;;5005085;28;20534;-79
2023/12/18 02:00:03;;;;;;;7.43;4.85;;;1.00;99.90;;;;;;5006988;28;20051;-80
2023/12/18 02:02:31;;;;;;;13.13;5.82;;;1.00;99.90;;;;;;5005267;28;20042;-80
2023/12/18 02:04:58;;;;;;;12.27;7.10;;;1.00;99.90;;;;;;5011672;28;20048;-78
2023/12/18 02:07:26;;;;;;;15.15;9.15;;;1.00;99.90;;;;;;5009493;28;20073;-80
2023/12/18 02:09:53;;;;;;;16.63;9.00;;;1.00;99.90;;;;;;5009998;28;20047;-80
2023/12/18 02:12:19;;;;;;;12.82;7.30;;;1.00;99.90;;;;;;5012065;28;20556;-79
2023/12/18 02:14:46;;;;;;;11.73;7.32;;;1.00;99.90;;;;;;5013075;28;20045;-78
2023/12/18 02:17:13;;;;;;;9.90;6.60;;;1.00;99.90;;;;;;5011495;28;20049;-79
2023/12/18 02:19:40;;;;;;;11.73;6.72;;;0.90;99.90;;;;;;5009617;28;20050;-78
2023/12/18 02:22:06;;;;;;;9.85;5.60;;;0.90;99.90;;;;;;5009143;28;20074;-78
2023/12/18 02:24:33;;;;;;;12.52;6.55;;;0.90;99.90;;;;;;5006241;28;20058;-78
2023/12/18 02:27:00;;;;;;;11.05;6.90;;;0.90;99.90;;;;;;5010714;28;20531;-78
2023/12/18 02:29:27;;;;;;;9.98;6.18;;;0.90;99.90;;;;;;5008857;28;20128;-79
2023/12/18 02:31:54;;;;;;;10.90;6.20;;;0.90;99.90;;;;;;5009501;28;20057;-80
2023/12/18 02:34:20;;;;;;;9.32;6.22;;;0.90;99.90;;;;;;5009516;28;20100;-78
2023/12/18 02:36:49;;;;;;;12.40;6.25;;;0.80;99.90;;;;;;5008531;28;20245;-80
2023/12/18 02:39:16;;;;;;;12.02;6.57;;;0.80;99.90;;;;;;5007561;28;20049;-79
2023/12/18 02:41:42;;;;;;;10.35;5.72;;;0.80;99.90;;;;;;5011139;28;20073;-79
2023/12/18 02:44:09;;;;;;;10.85;5.97;;;0.80;99.90;;;;;;5006440;28;20417;-80
2023/12/18 02:46:36;;;;;;;11.38;6.20;;;0.80;99.90;;;;;;5007174;28;20081;-78
2023/12/18 02:49:03;;;;;;;9.98;5.57;;;0.80;99.90;;;;;;5007718;28;20540;-80
2023/12/18 02:51:30;;;;;;;9.48;6.40;;;0.80;99.90;;;;;;5011268;28;20042;-80
2023/12/18 02:53:56;;;;;;;12.27;6.43;;;0.80;99.90;;;;;;5009178;28;20050;-80
2023/12/18 02:56:25;;;;;;;9.77;6.40;;;0.80;99.90;;;;;;5022595;28;20049;-79
2023/12/18 02:58:52;;;;;;;14.52;6.43;;;0.80;99.90;;;;;;5024434;28;20464;-79
2023/12/18 03:01:19;;;;;;;10.90;6.55;;;0.80;99.90;;;;;;5024131;28;20061;-80
2023/12/18 03:03:45;;;;;;;14.25;8.15;;;0.80;99.90;;;;;;5009663;28;20501;-79
2023/12/18 03:06:12;;;;;;;12.45;7.10;;;0.80;99.90;;;;;;5007633;28;20105;-78
2023/12/18 03:08:39;;;;;;;15.75;7.78;;;0.80;99.90;;;;;;5009356;28;20060;-79
2023/12/18 03:11:06;;;;;;;12.60;7.32;;;0.70;99.90;;;;;;5006225;28;20092;-79
2023/12/18 03:13:33;;;;;;;12.30;7.32;;;0.70;99.90;;;;;;5011223;28;20056;-80
2023/12/18 03:16:00;;;;;;;9.85;6.72;;;0.70;99.90;;;;;;5005733;28;20462;-78
2023/12/18 03:18:27;;;;;;;14.38;6.82;;;0.80;99.90;;;;;;5010025;28;20045;-78
2023/12/18 03:20:53;;;;;;;11.95;6.00;;;0.70;99.90;;;;;;5003130;28;20058;-79
2023/12/18 03:23:20;;;;;;;16.48;6.30;;;0.70;99.90;;;;;;5010918;28;20041;-79
2023/12/18 03:25:47;;;;;;;11.52;6.20;;;0.70;99.90;;;;;;5007736;28;20510;-79
2023/12/18 03:28:15;;;;;;;11.02;6.90;;;0.70;99.90;;;;;;5008635;28;20046;-80
2023/12/18 03:30:42;;;;;;;9.80;6.25;;;0.70;99.90;;;;;;5007568;28;20054;-80
2023/12/18 03:33:09;;;;;;;10.13;6.18;;;0.70;99.90;;;;;;5008132;28;20052;-79
2023/12/18 03:35:36;;;;;;;9.43;5.80;;;0.70;99.90;;;;;;5010006;28;20136;-79
2023/12/18 03:38:03;;;;;;;10.70;6.07;;;0.60;99.90;;;;;;5005898;28;20089;-80
2023/12/18 03:40:30;;;;;;;8.20;5.65;;;0.60;99.90;;;;;;5013024;28;20041;-78
2023/12/18 03:42:56;;;;;;;9.68;6.05;;;0.60;99.90;;;;;;5009700;28;20070;-79
2023/12/18 03:45:23;;;;;;;8.18;5.47;;;0.60;99.90;;;;;;5005049;28;20042;-78
2023/12/18 03:47:50;;;;;;;10.73;6.03;;;0.60;99.90;;;;;;5008344;28;20434;-78
2023/12/18 03:50:17;;;;;;;10.30;6.15;;;0.60;99.90;;;;;;5009495;28;20237;-78
2023/12/18 03:52:43;;;;;;;10.25;6.55;;;0.60;99.90;;;;;;5005789;28;20049;-78
2023/12/18 03:55:10;;;;;;;9.68;5.63;;;0.60;99.90;;;;;;5009459;28;20116;-78
2023/12/18 03:57:37;;;;;;;9.65;5.93;;;0.60;99.90;;;;;;5007531;28;20092;-80
2023/12/18 04:00:05;;;;;;;9.40;5.50;;;0.60;99.90;;;;;;5008414;28;20130;-79
2023/12/18 04:02:32;;;;;;;9.52;5.30;;;0.60;99.90;;;;;;5006655;28;20045;-79
2023/12/18 04:04:58;;;;;;;8.30;4.88;;;0.60;99.90;;;;;;5007685;28;20042;-79
2023/12/18 04:07:25;;;;;;;9.05;5.50;;;0.60;99.90;;;;;;5006826;28;20059;-79
2023/12/18 04:09:52;;;;;;;8.45;5.20;;;0.60;99.90;;;;;;5007090;28;20058;-79
2023/12/18 04:12:18;;;;;;;10.00;5.35;;;0.60;99.90;;;;;;5007309;28;20615;-80
2023/12/18 04:14:45;;;;;;;9.00;5.65;;;0.60;99.90;;;;;;5007581;28;20065;-78
2023/12/18 04:17:12;;;;;;;11.73;5.80;;;0.50;99.90;;;;;;5007129;28;20047;-78
2023/12/18 04:19:38;;;;;;;16.77;8.02;;;0.60;99.90;;;;;;5004602;28;20478;-80
2023/12/18 04:22:05;;;;;;;15.25;8.30;;;0.50;99.90;;;;;;5010648;28;20104;-78
2023/12/18 04:24:32;;;;;;;16.25;8.40;;;0.60;99.90;;;;;;5003250;28;20038;-77
2023/12/18 04:26:59;;;;;;;15.82;8.75;;;0.50;99.90;;;;;;5006913;28;20137;-79
2023/12/18 04:29:26;;;;;;;14.35;8.38;;;0.50;99.90;;;;;;5002056;28;20051;-78
2023/12/18 04:31:52;;;;;;;15.05;7.35;;;0.50;99.90;;;;;;5006326;28;20104;-78
2023/12/18 04:34:19;;;;;;;14.77;7.30;;;0.50;99.90;;;;;;5011652;28;20089;-80
2023/12/18 04:36:46;;;;;;;12.05;7.50;;;0.60;99.90;;;;;;5009760;28;20069;-80
2023/12/18 04:39:14;;;;;;;11.82;6.95;;;0.50;99.90;;;;;;5004246;28;20058;-79
2023/12/18 04:41:41;;;;;;;12.23;6.15;;;0.50;99.90;;;;;;5009458;28;20053;-79
2023/12/18 04:44:07;;;;;;;9.95;6.60;;;0.50;99.90;;;;;;5021630;28;20049;-80
2023/12/18 04:46:37;;;;;;;9.90;6.10;;;0.50;99.90;;;;;;5009499;28;20101;-79
2023/12/18 04:49:05;;;;;;;10.45;5.75;;;0.50;99.90;;;;;;5004976;28;20502;-80
2023/12/18 04:51:32;;;;;;;9.30;6.15;;;0.40;99.90;;;;;;5008709;28;20525;-79
2023/12/18 04:54:00;;;;;;;8.27;4.95;;;0.50;99.90;;;;;;5008580;28;20567;-80
2023/12/18 04:56:27;;;;;;;8.70;5.40;;;0.50;99.90;;;;;;5015759;28;20076;-78
2023/12/18 04:58:53;;;;;;;9.82;5.45;;;0.50;99.90;;;;;;5018605;28;20046;-79
2023/12/18 05:01:20;;;;;;;10.02;5.50;;;0.50;99.90;;;;;;5014128;28;20422;-78
2023/12/18 05:03:47;;;;;;;7.65;5.05;;;0.50;99.90;;;;;;5011726;28;20092;-79
2023/12/18 05:06:25;;;;;;;10.32;5.80;;;0.50;99.90;;;;;;5008414;28;20078;-80
2023/12/18 05:08:52;;;;;;;7.72;5.60;;;0.40;99.90;;;;;;5010762;28;20422;-79
2023/12/18 05:11:24;;;;;;;7.22;4.95;;;0.40;99.90;;;;;;5012959;28;20108;-79
2023/12/18 05:13:51;;;;;;;7.38;5.10;;;0.40;99.90;;;;;;5006543;28;20042;-79
2023/12/18 05:16:20;;;;;;;9.48;5.53;;;0.40;99.90;;;;;;5006005;28;20045;-80
2023/12/18 05:18:48;;;;;;;10.25;5.07;;;0.40;99.90;;;;;;5007509;28;20085;-78
2023/12/18 05:21:15;;;;;;;7.03;4.80;;;0.40;99.90;;;;;;5022085;28;20322;-79
2023/12/18 05:23:42;;;;;;;8.77;5.70;;;0.40;99.90;;;;;;5004982;28;20053;-80
2023/12/18 05:26:09;;;;;;;7.95;5.22;;;0.40;99.90;;;;;;5005523;28;20514;-79
2023/12/18 05:28:36;;;;;;;10.70;5.78;;;0.40;99.90;;;;;;5007331;28;20111;-80
2023/12/18 05:31:02;;;;;;;7.93;5.82;;;0.40;99.90;;;;;;5007093;28;20425;-79
2023/12/18 05:33:29;;;;;;;10.18;6.05;;;0.40;99.90;;;;;;5007886;28;20050;-79
2023/12/18 05:35:56;;;;;;;10.43;5.78;;;0.40;99.90;;;;;;5011216;28;20395;-78
2023/12/18 05:38:23;;;;;;;12.80;6.43;;;0.40;99.90;;;;;;5007481;28;20617;-79
2023/12/18 05:40:50;;;;;;;9.63;6.20;;;0.40;99.90;;;;;;5011380;28;20046;-78
2023/12/18 05:43:16;;;;;;;7.38;4.88;;;0.40;99.90;;;;;;5008396;28;20074;-80
2023/12/18 05:45:43;;;;;;;7.68;4.82;;;0.40;99.90;;;;;;5015758;28;20046;-79
2023/12/18 05:48:10;;;;;;;8.65;5.10;;;0.40;99.90;;;;;;5009225;28;20050;-79
2023/12/18 05:50:37;;;;;;;11.27;5.97;;;0.40;99.90;;;;;;5010623;28;20085;-79
2023/12/18 05:53:04;;;;;;;8.95;5.63;;;0.40;99.90;;;;;;5005572;28;20046;-80
2023/12/18 05:55:30;;;;;;;8.23;5.65;;;0.40;99.90;;;;;;5011237;28;20042;-79
2023/12/18 05:57:57;;;;;;;6.88;4.65;;;0.40;99.90;;;;;;5007251;28;20076;-80
2023/12/18 06:00:24;;;;;;;8.07;4.55;;;0.40;99.90;;;;;;5010126;28;20383;-79
2023/12/18 06:02:50;;;;;;;6.80;4.93;;;0.40;99.90;;;;;;5008257;28;20478;-79
2023/12/18 06:05:17;;;;;;;8.93;4.55;;;0.40;99.90;;;;;;5010758;28;20042;-79
2023/12/18 06:07:44;;;;;;;7.57;4.93;;;0.40;99.90;;;;;;5013367;28;20054;-80
2023/12/18 06:10:11;;;;;;;13.05;7.93;;;0.40;99.90;;;;;;5006655;28;20112;-78
2023/12/18 06:12:37;;;;;;;10.30;7.35;;;0.40;99.90;;;;;;5010577;28;20057;-79
2023/12/18 06:15:06;;;;;;;12.63;6.18;;;0.40;99.90;;;;;;5006474;28;20426;-79
2023/12/18 06:17:32;;;;;;;8.48;4.90;;;0.40;99.90;;;;;;5009727;28;20053;-78
2023/12/18 06:19:59;;;;;;;8.40;5.05;;;0.40;99.90;;;;;;5009251;28;20064;-79
2023/12/18 06:22:26;;;;;;;9.48;6.20;;;0.50;99.90;;;;;;5012713;28;20081;-79
2023/12/18 06:24:53;;;;;;;11.65;6.45;;;0.40;99.90;;;;;;5009531;28;20584;-78
2023/12/18 06:27:19;;;;;;;10.48;7.65;;;0.40;99.90;;;;;;5010755;28;20057;-78
2023/12/18 06:29:46;;;;;;;8.20;5.32;;;0.40;99.90;;;;;;5013200;28;20065;-79
2023/12/18 06:32:14;;;;;;;7.45;4.45;;;0.40;99.90;;;;;;5009788;28;20498;-78
2023/12/18 06:34:42;;;;;;;12.82;5.43;;;0.40;99.90;;;;;;5008081;28;20073;-77
2023/12/18 06:37:09;;;;;;;12.40;6.88;;;0.40;99.90;;;;;;5007857;28;20057;-78
2023/12/18 06:39:36;;;;;;;12.75;8.48;;;0.40;99.90;;;;;;5000847;28;20560;-79
2023/12/18 06:42:03;;;;;;;16.17;8.02;;;0.40;99.90;;;;;;5007222;28;20137;-78
2023/12/18 06:44:30;;;;;;;15.75;9.05;;;0.40;99.90;;;;;;5008470;28;20133;-78
2023/12/18 06:46:57;;;;;;;16.77;9.02;;;0.50;99.90;;;;;;5009206;28;20050;-78
2023/12/18 06:49:23;;;;;;;18.75;12.43;;;0.50;99.90;;;;;;4971336;28;1063867;-78
2023/12/18 06:51:50;;;;;;;14.40;8.88;;;0.50;99.90;;;;;;5007714;28;20370;-79
2023/12/18 06:54:17;;;;;;;11.23;6.97;;;0.50;99.90;;;;;;5010423;28;20050;-78
2023/12/18 06:56:45;;;;;;;13.85;6.65;;;0.60;99.90;;;;;;5005758;28;20077;-78
2023/12/18 06:59:12;;;;;;;10.43;6.07;;;0.60;99.90;;;;;;5010807;28;20050;-77
2023/12/18 07:01:38;;;;;;;9.50;6.05;;;0.60;99.90;;;;;;5004035;28;20069;-80
2023/12/18 07:04:06;;;;;;;9.63;6.18;;;0.60;99.90;;;;;;5010107;28;20142;-79
2023/12/18 07:06:33;;;;;;;11.85;6.22;;;0.60;99.90;;;;;;5010872;28;20145;-77
2023/12/18 07:09:00;;;;;;;11.07;6.95;;;0.60;99.90;;;;;;5011067;28;20473;-80
2023/12/18 07:11:27;;;;;;;10.30;6.15;;;0.60;99.90;;;;;;5008506;28;20395;-79
2023/12/18 07:13:54;;;;;;;11.85;5.80;;;0.60;99.90;;;;;;5007170;28;20078;-81
2023/12/18 07:16:22;;;;;;;9.73;6.07;;;0.60;99.90;;;;;;5009800;28;20487;-80
2023/12/18 07:18:49;;;;;;;14.63;6.68;;;0.60;99.90;;;;;;5011961;28;20073;-77
2023/12/18 07:21:16;;;;;;;18.63;6.80;;;0.60;99.90;;;;;;5012150;28;20585;-76
2023/12/18 07:23:43;;;;;;;14.63;6.97;;;0.60;99.90;;;;;;5013526;28;20050;-79
2023/12/18 07:26:12;;;;;;;12.27;6.93;;;0.60;99.90;;;;;;5006075;28;20510;-77
2023/12/18 07:28:43;;;;;;;12.27;7.82;;;0.60;99.90;;;;;;5014178;28;20057;-79
2023/12/18 07:31:09;;;;;;;14.30;7.30;;;0.60;99.90;;;;;;5008330;28;20054;-79
2023/12/18 07:33:36;;;;;;;18.60;8.73;;;0.60;99.90;;;;;;5010647;28;20544;-80
2023/12/18 07:36:04;;;;;;;21.38;9.23;;;0.60;99.90;;;;;;5009497;28;20049;-79
2023/12/18 07:38:30;;;;;;;13.32;8.48;;;0.50;99.90;;;;;;5007424;28;20077;-77
2023/12/18 07:40:59;;;;;;;16.60;9.80;;;0.50;99.90;;;;;;5007304;28;20158;-78
2023/12/18 07:43:25;;;;;;;15.48;9.15;;;0.50;99.90;;;;;;5020983;28;20050;-78
2023/12/18 07:45:52;;;;;;;16.00;9.88;;;0.60;99.90;;;;;;5009761;28;20042;-77
2023/12/18 07:48:21;;;;;;;15.52;8.77;;;0.60;99.90;;;;;;5003782;28;20444;-78
2023/12/18 07:50:48;;;;;;;12.27;8.40;;;0.60;99.90;;;;;;5011172;28;20050;-76
2023/12/18 07:53:16;;;;;;;13.20;6.93;;;0.60;99.90;;;;;;5007552;28;20053;-78
2023/12/18 07:55:42;;;;;;;12.05;6.00;;;0.60;99.90;;;;;;5009179;28;20533;-77
2023/12/18 07:58:09;;;;;;;8.77;5.30;;;0.60;99.90;;;;;;5006236;28;20065;-78
2023/12/18 08:00:36;;;;;;;11.73;6.03;;;0.60;99.90;;;;;;5007418;28;20072;-79
2023/12/18 08:03:03;;;;;;;6.55;4.97;;;0.60;99.90;;;;;;5005430;28;20100;-78
2023/12/18 08:05:30;;;;;;;9.25;5.30;;;0.60;99.90;;;;;;5006394;28;20050;-79
2023/12/18 08:07:57;;;;;;;11.25;5.45;;;0.60;99.90;;;;;;5008722;28;20102;-79
2023/12/18 08:10:24;;;;;;;15.52;5.80;;;0.60;99.90;;;;;;5005757;28;20054;-79
2023/12/18 08:12:51;;;;;;;8.85;5.28;;;0.60;99.90;;;;;;5011705;28;20058;-77
2023/12/18 08:15:18;;;;;;;8.60;5.75;;;0.60;99.90;;;;;;5004284;28;20434;-78
2023/12/18 08:17:45;;;;;;;12.52;6.10;;;0.70;99.90;;;;;;5010142;28;20124;-78
2023/12/18 08:20:12;;;;;;;9.75;6.20;;;0.70;99.90;;;;;;5002602;28;20518;-78
2023/12/18 08:22:39;;;;;;;10.93;5.95;;;0.70;99.90;;;;;;5009818;28;20046;-78
2023/12/18 08:25:06;;;;;;;9.40;6.22;;;0.80;99.90;;;;;;5003082;28;20127;-79
2023/12/18 08:27:34;;;;;;;10.68;6.43;;;0.80;99.90;;;;;;5008872;28;20092;-76
2023/12/18 08:30:05;;;;;;;10.23;5.70;;;0.80;99.90;;;;;;5005553;28;20049;-78
2023/12/18 08:32:32;;;;;;;11.10;6.40;;;0.90;99.90;;;;;;5011347;28;20057;-78
2023/12/18 08:35:00;;;;;;;10.73;5.90;;;0.90;99.90;;;;;;5005761;28;20460;-79
2023/12/18 08:37:27;;;;;;;36.42;20.67;;;0.90;99.90;;;;;;5006561;28;20042;-78
2023/12/18 08:39:55;;;;;;;30.08;16.67;;;0.90;99.90;;;;;;5009665;28;20127;-79
2023/12/18 08:42:22;;;;;;;21.63;13.07;;;0.90;99.90;;;;;;5006276;28;20046;-79
2023/12/18 08:44:49;;;;;;;22.33;10.90;;;1.00;99.90;;;;;;5009956;28;20056;-79
2023/12/18 08:47:16;;;;;;;17.85;8.95;;;1.10;99.90;;;;;;5005180;28;20117;-78
2023/12/18 08:49:43;;;;;;;13.68;7.38;;;1.10;99.90;;;;;;5011758;28;20049;-79
2023/12/18 08:52:09;;;;;;;13.30;7.75;;;1.20;99.90;;;;;;5004598;28;20054;-79
2023/12/18 08:54:36;;;;;;;12.30;8.05;;;1.20;99.90;;;;;;5013852;28;20441;-77
2023/12/18 08:57:03;;;;;;;15.13;7.43;;;1.30;99.90;;;;;;5020821;28;20092;-77
2023/12/18 08:59:30;;;;;;;16.25;9.90;;;1.40;99.90;;;;;;5016811;28;20113;-79
2023/12/18 09:01:56;;;;;;;14.70;8.80;;;1.40;99.90;;;;;;5010472;28;20085;-79
2023/12/18 09:04:23;;;;;;;12.40;7.47;;;1.50;99.90;;;;;;5008554;28;20046;-79
2023/12/18 09:06:50;;;;;;;17.05;10.10;;;1.50;99.90;;;;;;5006699;28;20045;-78
2023/12/18 09:09:17;;;;;;;15.32;10.25;;;1.60;99.90;;;;;;5006543;28;20525;-78
2023/12/18 09:11:44;;;;;;;18.65;11.63;;;1.60;99.90;;;;;;5000765;28;20054;-77
2023/12/18 09:14:11;;;;;;;18.15;10.48;;;1.70;99.90;;;;;;5006404;28;20100;-79
2023/12/18 09:16:39;;;;;;;18.63;11.50;;;1.70;99.90;;;;;;5006631;28;20054;-78
2023/12/18 09:19:05;;;;;;;18.85;11.77;;;1.80;99.90;;;;;;5005164;28;20494;-79
2023/12/18 09:21:32;;;;;;;19.90;11.05;;;1.80;99.90;;;;;;5007491;28;20057;-78
2023/12/18 09:23:59;;;;;;;17.08;11.20;;;1.90;99.90;;;;;;5005607;28;20086;-78
2023/12/18 09:26:26;;;;;;;21.38;12.10;;;2.00;99.90;;;;;;5008969;28;20046;-77
2023/12/18 09:28:52;;;;;;;17.58;11.57;;;2.00;99.90;;;;;;5001947;28;20501;-79
2023/12/18 09:31:20;;;;;;;22.95;12.48;;;2.00;99.90;;;;;;5007741;28;20058;-79
2023/12/18 09:33:47;;;;;;;18.65;12.07;;;2.10;99.90;;;;;;5006068;28;20050;-78
2023/12/18 09:36:14;;;;;;;17.85;11.07;;;2.10;99.90;;;;;;5008632;28;20053;-78
2023/12/18 09:38:41;;;;;;;16.15;10.07;;;2.10;99.90;;;;;;5005746;28;20042;-79
2023/12/18 09:41:08;;;;;;;18.60;10.45;;;2.20;99.90;;;;;;5007319;28;20038;-78
2023/12/18 09:43:35;;;;;;;16.27;10.75;;;2.20;99.90;;;;;;5005558;28;20522;-79
2023/12/18 09:46:02;;;;;;;17.48;11.50;;;2.30;99.90;;;;;;5004530;28;20042;-78
2023/12/18 09:48:29;;;;;;;23.20;13.30;;;2.30;99.90;;;;;;5006152;28;20423;-78
2023/12/18 09:50:56;;;;;;;19.38;13.20;;;2.30;99.90;;;;;;5005726;28;20046;-78
2023/12/18 09:53:24;;;;;;;17.90;11.30;;;2.40;99.90;;;;;;5005981;28;20045;-78
2023/12/18 09:55:54;;;;;;;16.77;10.15;;;2.40;99.90;;;;;;5009083;28;20046;-78
2023/12/18 09:58:21;;;;;;;13.32;9.65;;;2.40;99.90;;;;;;5005899;28;20164;-78
2023/12/18 10:00:48;;;;;;;14.75;9.60;;;2.50;99.90;;;;;;5007553;28;20042;-80
2023/12/18 10:03:18;;;;;;;16.63;10.65;;;2.60;99.90;;;;;;5007496;28;20129;-79
2023/12/18 10:05:46;;;;;;;12.93;9.30;;;2.60;99.90;;;;;;5006722;28;20046;-80
2023/12/18 10:08:13;;;;;;;16.85;9.23;;;2.70;99.90;;;;;;5007263;28;20145;-78
2023/12/18 10:10:42;;;;;;;14.48;8.88;;;2.70;99.90;;;;;;5001511;28;20054;-78
2023/12/18 10:13:11;;;;;;;19.75;9.85;;;2.80;99.90;;;;;;5021185;28;20136;-78
2023/12/18 10:15:39;;;;;;;15.95;9.15;;;2.90;99.90;;;;;;5005999;28;20057;-78
2023/12/18 10:18:07;;;;;;;15.80;9.80;;;2.90;99.90;;;;;;5005344;28;20056;-79
2023/12/18 10:20:34;;;;;;;15.88;9.40;;;3.00;99.90;;;;;;5005036;28;20042;-78
2023/12/18 10:23:02;;;;;;;15.27;9.55;;;3.00;99.90;;;;;;5008351;28;20053;-78
2023/12/18 10:25:30;;;;;;;15.23;9.70;;;3.10;99.90;;;;;;5015166;28;20042;-79
2023/12/18 10:27:57;;;;;;;15.95;9.95;;;3.10;99.90;;;;;;5008909;28;20101;-78
2023/12/18 10:30:26;;;;;;;17.92;10.15;;;3.10;99.90;;;;;;5012152;28;20074;-79
2023/12/18 10:32:53;;;;;;;17.63;9.90;;;3.20;99.90;;;;;;5011159;28;20132;-79
2023/12/18 10:35:22;;;;;;;18.05;11.45;;;3.20;99.90;;;;;;5008419;28;20421;-77
2023/12/18 10:37:53;;;;;;;22.50;11.80;;;3.30;99.90;;;;;;5014972;28;20045;-78
2023/12/18 10:40:23;;;;;;;25.98;13.98;;;3.30;99.90;;;;;;5013304;28;20050;-79
2023/12/18 10:43:01;;;;;;;30.17;15.50;;;3.40;99.90;;;;;;5009610;28;20042;-79
2023/12/18 10:45:29;;;;;;;24.80;14.10;;;3.40;99.90;;;;;;5011638;28;20096;-78
2023/12/18 10:47:59;;;;;;;26.92;14.68;;;3.40;99.90;;;;;;5011957;28;20478;-79
2023/12/18 10:50:30;;;;;;;22.73;12.68;;;3.50;99.90;;;;;;5012356;28;20469;-80
2023/12/18 10:52:59;;;;;;;26.67;13.35;;;3.50;99.90;;;;;;5009601;28;20037;-79
2023/12/18 10:55:27;;;;;;;23.23;12.95;;;3.60;99.90;;;;;;5014706;28;20078;-79
2023/12/18 10:57:58;;;;;;;26.20;14.18;;;3.60;99.90;;;;;;5008332;28;20333;-79
2023/12/18 11:00:27;;;;;;;29.05;12.75;;;3.60;99.90;;;;;;5008753;28;20053;-79
2023/12/18 11:02:56;;;;;;;25.17;13.48;;;3.70;99.90;;;;;;5011634;28;20073;-80
2023/12/18 11:05:24;;;;;;;26.73;13.57;;;3.80;99.90;;;;;;5010683;28;20512;-79
2023/12/18 11:07:51;;;;;;;24.10;14.50;;;3.80;99.90;;;;;;5009638;28;20049;-77
2023/12/18 11:10:19;;;;;;;21.52;12.65;;;3.90;99.90;;;;;;5006422;28;20042;-80
2023/12/18 11:12:48;;;;;;;28.17;13.48;;;3.90;99.90;;;;;;5013119;28;20445;-78
2023/12/18 11:15:41;;;;;;;22.60;12.63;;;4.00;99.90;;;;;;5006096;28;20054;-79
2023/12/18 11:18:26;;;;;;;29.52;15.68;;;4.10;99.90;;;;;;5010638;28;20050;-79
2023/12/18 11:20:56;;;;;;;22.90;13.27;;;4.10;99.90;;;;;;5008864;28;20041;-79
2023/12/18 11:23:27;;;;;;;23.08;12.30;;;4.20;99.90;;;;;;5011653;28;20046;-79
2023/12/18 11:25:54;;;;;;;25.08;13.32;;;4.20;99.90;;;;;;5010924;28;20042;-79
2023/12/18 11:28:25;;;;;;;24.25;13.07;;;4.30;99.90;;;;;;5005336;28;20046;-79
2023/12/18 11:31:00;;;;;;;25.80;13.25;;;4.30;99.90;;;;;;5014021;28;20049;-78
2023/12/18 11:33:29;;;;;;;30.85;14.15;;;4.40;99.90;;;;;;5006610;28;20134;-80
2023/12/18 11:36:11;;;;;;;28.10;15.38;;;4.40;99.90;;;;;;5007534;28;20586;-79
2023/12/18 11:38:38;;;;;;;48.90;22.55;;;4.50;99.90;;;;;;5007136;28;20056;-79
2023/12/18 11:41:05;;;;;;;46.72;22.48;;;4.50;99.90;;;;;;5010529;28;20041;-78
2023/12/18 11:43:50;;;;;;;60.38;29.40;;;4.50;99.90;;;;;;5021237;28;20082;-80
2023/12/18 11:46:17;;;;;;;61.90;31.33;;;4.60;99.90;;;;;;5011074;28;20046;-78
2023/12/18 11:48:45;;;;;;;77.60;36.13;;;4.60;99.90;;;;;;5009735;28;20054;-80
2023/12/18 11:51:15;;;;;;;85.55;37.75;;;4.70;99.90;;;;;;5010913;28;20113;-80
2023/12/18 11:53:42;;;;;;;80.38;38.15;;;4.70;99.90;;;;;;5010937;28;20501;-80
2023/12/18 11:56:10;;;;;;;89.38;38.83;;;4.70;99.90;;;;;;5007774;28;20049;-80
2023/12/18 11:58:40;;;;;;;68.45;35.50;;;4.80;99.90;;;;;;5027868;28;20104;-80
2023/12/18 12:01:08;;;;;;;73.13;34.45;;;4.80;99.90;;;;;;5011064;28;20100;-78
2023/12/18 12:03:37;;;;;;;71.07;33.53;;;4.90;99.90;;;;;;5019226;28;20498;-78
2023/12/18 12:06:07;;;;;;;66.90;31.75;;;5.00;99.90;;;;;;5020792;28;20052;-77
2023/12/18 12:08:50;;;;;;;71.10;30.33;;;5.00;99.90;;;;;;5019402;28;20054;-78
2023/12/18 12:11:20;;;;;;;59.53;28.83;;;5.10;99.90;;;;;;5010715;28;20046;-79
2023/12/18 12:13:53;;;;;;;54.60;25.60;;;5.20;99.90;;;;;;5017624;28;20049;-79
2023/12/18 12:16:20;;;;;;;59.88;27.02;;;5.20;99.90;;;;;;5017389;28;20049;-80
2023/12/18 12:18:50;;;;;;;48.33;24.08;;;5.30;99.90;;;;;;5009309;28;20041;-78
2023/12/18 12:21:18;;;;;;;45.22;20.25;;;5.30;99.90;;;;;;5009748;28;20100;-78
2023/12/18 12:23:47;;;;;;;46.33;20.98;;;5.40;99.90;;;;;;5011595;28;20111;-80
2023/12/18 12:26:18;;;;;;;41.97;20.92;;;5.50;99.90;;;;;;5012145;28;20068;-79
2023/12/18 12:28:46;;;;;;;48.40;21.98;;;5.60;99.90;;;;;;5007336;28;20112;-78
2023/12/18 12:31:16;;;;;;;52.35;23.15;;;5.60;99.90;;;;;;5007749;28;20493;-79
2023/12/18 12:33:45;;;;;;;44.28;20.88;;;5.70;99.90;;;;;;5008269;28;20057;-80
2023/12/18 12:36:17;;;;;;;52.47;23.58;;;5.70;99.90;;;;;;5011978;28;20108;-80
2023/12/18 12:38:44;;;;;;;47.35;22.98;;;5.80;99.90;;;;;;5006751;28;20353;-80
2023/12/18 12:41:11;;;;;;;38.78;19.30;;;5.90;99.90;;;;;;5010222;28;20429;-80
2023/12/18 12:43:38;;;;;;;44.67;19.60;;;6.00;99.90;;;;;;5010013;28;20097;-81
2023/12/18 12:46:05;;;;;;;32.75;16.50;;;6.10;99.90;;;;;;5009070;28;20409;-79
2023/12/18 12:48:34;;;;;;;34.40;17.95;;;6.10;99.90;;;;;;5011513;28;20050;-80
2023/12/18 12:51:04;;;;;;;36.70;16.15;;;6.20;99.90;;;;;;5007064;28;20047;-78